createdAt,value
2022-10-23T00:00:59.220Z,8.03
2022-10-23T00:03:33.119Z,16.90
2022-10-23T00:06:18.202Z,10.07
2022-10-23T00:08:58.323Z,13.37
2022-10-23T00:11:32.606Z,16.40
2022-10-23T00:14:07.290Z,10.43
2022-10-23T00:17:01.059Z,14.90
2022-10-23T00:19:42.570Z,13.13
2022-10-23T00:22:21.904Z,11.63
2022-10-23T00:24:55.068Z,11.97
2022-10-23T00:27:34.681Z,8.37
2022-10-23T00:30:16.572Z,7.73
2022-10-23T00:32:56.324Z,11.33
2022-10-23T00:35:32.051Z,8.30
2022-10-23T00:38:09.245Z,9.50
2022-10-23T00:40:46.175Z,17.43
2022-10-23T00:43:31.038Z,11.30
2022-10-23T00:46:16.925Z,6.10
2022-10-23T00:48:49.648Z,12.07
2022-10-23T00:51:29.704Z,8.47
2022-10-23T00:54:24.002Z,11.20
2022-10-23T00:57:00.200Z,11.00
2022-10-23T00:59:38.703Z,16.20
2022-10-23T01:05:17.843Z,11.63
2022-10-23T01:08:10.053Z,12.87
2022-10-23T01:11:03.451Z,6.30
2022-10-23T01:13:54.690Z,7.70
2022-10-23T01:16:38.951Z,8.17
2022-10-23T01:19:23.175Z,6.70
2022-10-23T01:22:06.257Z,8.13
2022-10-23T01:24:51.558Z,9.27
2022-10-23T01:27:26.800Z,8.90
2022-10-23T01:30:08.920Z,13.80
2022-10-23T01:32:52.314Z,12.70
2022-10-23T01:35:26.921Z,17.00
2022-10-23T01:38:01.989Z,9.77
2022-10-23T01:40:35.625Z,8.80
2022-10-23T01:43:11.419Z,18.53
2022-10-23T01:45:43.627Z,12.60
2022-10-23T01:48:16.282Z,13.03
2022-10-23T01:50:46.879Z,9.97
2022-10-23T01:53:15.596Z,13.87
2022-10-23T01:55:45.082Z,9.13
2022-10-23T01:58:16.438Z,22.87
2022-10-23T02:00:48.097Z,10.00
2022-10-23T02:03:18.591Z,13.13
2022-10-23T02:05:47.599Z,10.17
2022-10-23T02:08:17.108Z,12.83
2022-10-23T02:10:51.144Z,12.17
2022-10-23T02:13:26.709Z,17.90
2022-10-23T02:16:05.373Z,13.97
2022-10-23T02:18:40.115Z,14.10
2022-10-23T02:21:13.311Z,14.80
2022-10-23T02:23:53.709Z,13.67
2022-10-23T02:26:29.023Z,13.83
2022-10-23T02:31:34.588Z,15.03
2022-10-23T02:34:03.454Z,17.83
2022-10-23T02:36:32.013Z,13.60
2022-10-23T02:39:00.515Z,22.17
2022-10-23T02:41:45.400Z,14.20
2022-10-23T02:44:33.195Z,11.37
2022-10-23T02:47:15.600Z,13.33
2022-10-23T02:49:50.277Z,19.53
2022-10-23T02:52:24.893Z,13.90
2022-10-23T02:55:07.012Z,20.93
2022-10-23T02:57:42.628Z,23.03
2022-10-23T03:00:15.809Z,14.80
2022-10-23T03:02:51.227Z,25.57
2022-10-23T03:05:23.950Z,22.10
2022-10-23T03:07:52.924Z,18.00
2022-10-23T03:10:21.730Z,21.30
2022-10-23T03:12:50.226Z,14.87
2022-10-23T03:15:20.511Z,20.83
2022-10-23T03:17:49.100Z,20.20
2022-10-23T03:20:17.687Z,18.10
2022-10-23T03:22:46.394Z,17.37
2022-10-23T03:25:15.567Z,17.23
2022-10-23T03:27:44.094Z,14.40
2022-10-23T03:30:13.261Z,20.30
2022-10-23T03:32:43.522Z,24.57
2022-10-23T03:35:12.284Z,21.53
2022-10-23T03:37:42.774Z,21.87
2022-10-23T03:40:12.388Z,18.90
2022-10-23T03:42:40.932Z,21.27
2022-10-23T03:45:10.275Z,23.93
2022-10-23T03:47:41.404Z,21.27
2022-10-23T03:50:13.609Z,13.63
2022-10-23T03:52:42.973Z,19.00
2022-10-23T03:55:12.409Z,20.27
2022-10-23T03:57:40.925Z,16.00
2022-10-23T04:00:10.682Z,33.87
2022-10-23T04:02:40.857Z,17.23
2022-10-23T04:05:11.391Z,12.27
2022-10-23T04:07:40.175Z,16.03
2022-10-23T04:10:09.624Z,16.97
2022-10-23T04:12:38.758Z,17.30
2022-10-23T04:15:11.993Z,14.17
2022-10-23T04:17:41.979Z,15.47
2022-10-23T04:20:16.666Z,22.13
2022-10-23T04:22:50.566Z,16.30
2022-10-23T04:25:21.045Z,20.83
2022-10-23T04:27:51.522Z,29.03
2022-10-23T04:30:23.262Z,12.60
2022-10-23T04:32:58.728Z,53.73
2022-10-23T04:35:30.794Z,29.30
2022-10-23T04:38:00.760Z,70.17
2022-10-23T04:40:29.701Z,47.03
2022-10-23T04:42:58.216Z,40.17
2022-10-23T04:45:26.777Z,35.10
2022-10-23T04:47:56.230Z,31.40
2022-10-23T04:50:25.270Z,39.33
2022-10-23T04:52:57.540Z,32.93
2022-10-23T04:55:26.361Z,35.10
2022-10-23T04:57:54.851Z,39.53
2022-10-23T05:00:23.619Z,44.47
2022-10-23T05:02:52.044Z,29.10
2022-10-23T05:05:20.492Z,36.03
2022-10-23T05:07:49.027Z,25.17
2022-10-23T05:10:19.101Z,34.27
2022-10-23T05:12:47.562Z,39.87
2022-10-23T05:15:16.138Z,40.23
2022-10-23T05:17:47.800Z,32.50
2022-10-23T05:20:21.272Z,67.00
2022-10-23T05:22:51.460Z,42.30
2022-10-23T05:25:21.438Z,34.90
2022-10-23T05:27:49.907Z,25.03
2022-10-23T05:30:18.425Z,28.57
2022-10-23T05:32:46.997Z,32.60
2022-10-23T05:35:20.327Z,29.23
2022-10-23T05:37:50.386Z,31.67
2022-10-23T05:40:20.628Z,34.40
2022-10-23T05:42:49.222Z,25.00
2022-10-23T05:45:18.277Z,35.97
2022-10-23T05:47:47.227Z,28.63
2022-10-23T05:50:15.854Z,30.17
2022-10-23T05:52:46.869Z,23.47
2022-10-23T05:55:15.657Z,24.00
2022-10-23T05:57:45.747Z,27.63
2022-10-23T06:00:15.148Z,28.43
2022-10-23T06:02:43.681Z,25.83
2022-10-23T06:05:12.103Z,35.05
2022-10-23T06:07:40.780Z,30.70
2022-10-23T06:10:09.765Z,34.37
2022-10-23T06:12:38.258Z,37.00
2022-10-23T06:15:10.354Z,43.83
2022-10-23T06:17:39.811Z,67.77
2022-10-23T06:20:09.759Z,103.17
2022-10-23T06:22:38.237Z,269.03
2022-10-23T06:25:07.783Z,64.30
2022-10-23T06:27:36.257Z,51.50
2022-10-23T06:30:05.022Z,47.40
2022-10-23T06:32:34.918Z,70.40
2022-10-23T06:35:03.421Z,63.67
2022-10-23T06:37:34.334Z,60.13
2022-10-23T06:40:02.814Z,72.67
2022-10-23T06:42:31.350Z,87.87
2022-10-23T06:45:03.409Z,94.37
2022-10-23T06:47:36.357Z,67.93
2022-10-23T06:50:05.307Z,78.23
2022-10-23T06:52:46.406Z,122.43
2022-10-23T06:55:15.745Z,78.37
2022-10-23T06:57:44.518Z,69.23
2022-10-23T07:00:14.554Z,59.63
2022-10-23T07:02:44.760Z,65.93
2022-10-23T07:05:13.903Z,67.17
2022-10-23T07:07:42.590Z,80.63
2022-10-23T07:10:11.259Z,66.13
2022-10-23T07:12:39.964Z,68.10
2022-10-23T07:15:09.701Z,69.70
2022-10-23T07:17:38.166Z,54.53
2022-10-23T07:20:08.822Z,54.67
2022-10-23T07:22:38.431Z,56.13
2022-10-23T07:25:07.925Z,49.80
2022-10-23T07:27:39.004Z,49.17
2022-10-23T07:30:08.802Z,54.70
2022-10-23T07:32:37.269Z,45.17
2022-10-23T07:35:08.007Z,47.03
2022-10-23T07:37:36.651Z,44.20
2022-10-23T07:40:05.531Z,45.53
2022-10-23T07:42:34.074Z,50.77
2022-10-23T07:45:04.363Z,50.47
2022-10-23T07:47:33.463Z,56.63
2022-10-23T07:50:02.109Z,48.30
2022-10-23T07:52:35.081Z,51.53
2022-10-23T07:55:04.787Z,40.60
2022-10-23T07:57:33.267Z,48.43
2022-10-23T08:00:01.740Z,40.23
2022-10-23T08:02:30.299Z,44.73
2022-10-23T08:04:58.970Z,40.33
2022-10-23T08:07:27.429Z,38.43
2022-10-23T08:09:57.302Z,41.90
2022-10-23T08:12:25.721Z,38.30
2022-10-23T08:14:54.327Z,38.80
2022-10-23T08:17:25.114Z,39.03
2022-10-23T08:19:56.120Z,38.27
2022-10-23T08:22:24.623Z,34.60
2022-10-23T08:24:53.169Z,31.90
2022-10-23T08:27:22.992Z,38.50
2022-10-23T08:29:51.484Z,34.33
2022-10-23T08:32:20.019Z,34.87
2022-10-23T08:34:48.586Z,29.10
2022-10-23T08:37:17.006Z,31.97
2022-10-23T08:39:47.259Z,29.07
2022-10-23T08:42:27.155Z,23.07
2022-10-23T08:45:02.651Z,29.13
2022-10-23T08:47:37.474Z,21.47
2022-10-23T08:50:11.892Z,20.50
2022-10-23T08:52:46.089Z,19.10
2022-10-23T08:55:20.056Z,18.90
2022-10-23T08:57:58.831Z,21.03
2022-10-23T09:00:27.576Z,20.50
2022-10-23T09:02:56.500Z,16.80
2022-10-23T09:05:31.701Z,20.20
2022-10-23T09:08:13.647Z,15.00
2022-10-23T09:11:02.960Z,22.10
2022-10-23T09:13:56.433Z,14.67
2022-10-23T09:16:37.844Z,11.10
2022-10-23T09:19:15.721Z,14.97
2022-10-23T09:21:45.743Z,10.47
2022-10-23T09:24:17.897Z,8.07
2022-10-23T09:26:49.606Z,12.00
2022-10-23T09:29:25.025Z,14.10
2022-10-23T09:31:55.545Z,10.30
2022-10-23T09:34:26.471Z,7.53
2022-10-23T09:36:57.677Z,10.40
2022-10-23T09:39:30.179Z,6.57
2022-10-23T09:41:59.530Z,9.23
2022-10-23T09:44:31.159Z,10.10
2022-10-23T09:47:11.229Z,9.67
2022-10-23T09:49:47.831Z,9.37
2022-10-23T09:52:26.656Z,12.23
2022-10-23T09:54:57.746Z,7.37
2022-10-23T09:57:32.829Z,13.40
2022-10-23T10:00:16.158Z,7.10
2022-10-23T10:02:55.522Z,10.17
2022-10-23T10:05:27.010Z,14.03
2022-10-23T10:07:59.310Z,12.33
2022-10-23T10:10:34.761Z,13.07
2022-10-23T10:13:11.934Z,10.97
2022-10-23T10:15:50.889Z,6.70
2022-10-23T10:18:24.456Z,7.67
2022-10-23T10:21:15.729Z,6.63
2022-10-23T10:23:51.042Z,9.37
2022-10-23T10:26:33.352Z,10.77
2022-10-23T10:29:13.813Z,8.87
2022-10-23T10:31:55.786Z,9.10
2022-10-23T10:34:30.894Z,5.10
2022-10-23T10:37:03.960Z,7.33
2022-10-23T10:39:42.940Z,8.13
2022-10-23T10:42:34.070Z,6.10
2022-10-23T10:45:27.029Z,10.77
2022-10-23T10:48:13.815Z,13.30
2022-10-23T10:50:47.779Z,8.33
2022-10-23T10:53:24.027Z,7.97
2022-10-23T10:55:55.433Z,8.10
2022-10-23T10:58:31.775Z,12.10
2022-10-23T11:01:03.472Z,10.57
2022-10-23T11:03:42.240Z,10.10
2022-10-23T11:06:17.561Z,10.20
2022-10-23T11:08:56.498Z,10.90
2022-10-23T11:11:32.578Z,13.53
2022-10-23T11:14:01.437Z,10.27
2022-10-23T11:16:34.544Z,13.23
2022-10-23T11:19:11.472Z,13.73
2022-10-23T11:21:47.559Z,7.47
2022-10-23T11:24:45.331Z,9.63
2022-10-23T11:27:44.471Z,11.90
2022-10-23T11:30:21.140Z,9.30
2022-10-23T11:33:22.941Z,9.13
2022-10-23T11:36:06.995Z,9.33
2022-10-23T11:38:37.834Z,6.77
2022-10-23T11:41:19.933Z,6.60
2022-10-23T11:43:53.227Z,8.73
2022-10-23T11:46:37.073Z,11.60
2022-10-23T11:49:20.149Z,8.50
2022-10-23T11:52:00.597Z,10.07
2022-10-23T11:54:29.681Z,5.90
2022-10-23T11:57:12.255Z,6.57
2022-10-23T11:59:54.625Z,7.97
2022-10-23T12:02:38.861Z,5.83
2022-10-23T12:05:09.750Z,9.70
2022-10-23T12:07:41.902Z,9.90
2022-10-23T12:10:31.264Z,9.57
2022-10-23T12:13:01.368Z,7.90
2022-10-23T12:15:30.449Z,7.47
2022-10-23T12:18:14.787Z,9.80
2022-10-23T12:20:51.139Z,8.37
2022-10-23T12:23:47.329Z,9.53
2022-10-23T12:26:31.742Z,10.83
2022-10-23T12:29:09.581Z,7.73
2022-10-23T12:31:48.167Z,13.43
2022-10-23T12:34:30.893Z,5.23
2022-10-23T12:37:09.877Z,6.50
2022-10-23T12:39:41.949Z,8.93
2022-10-23T12:42:18.577Z,8.50
2022-10-23T12:44:47.024Z,7.93
2022-10-23T12:47:19.759Z,7.27
2022-10-23T12:49:51.948Z,7.13
2022-10-23T12:52:24.515Z,8.03
2022-10-23T12:54:59.437Z,10.93
2022-10-23T12:57:30.233Z,19.67
2022-10-23T13:00:02.465Z,6.80
2022-10-23T13:02:35.361Z,6.77
2022-10-23T13:05:07.107Z,10.10
2022-10-23T13:07:39.028Z,6.27
2022-10-23T13:10:14.468Z,8.20
2022-10-23T13:12:47.311Z,6.77
2022-10-23T13:15:19.290Z,7.60
2022-10-23T13:18:00.018Z,12.50
2022-10-23T13:20:31.066Z,6.27
2022-10-23T13:23:02.656Z,8.60
2022-10-23T13:25:34.931Z,7.83
2022-10-23T13:28:20.478Z,7.23
2022-10-23T13:31:04.316Z,12.00
2022-10-23T13:33:36.338Z,8.17
2022-10-23T13:36:20.158Z,8.03
2022-10-23T13:39:02.299Z,11.50
2022-10-23T13:41:41.973Z,7.20
2022-10-23T13:44:17.784Z,5.53
2022-10-23T13:46:48.413Z,12.43
2022-10-23T13:49:17.263Z,6.60
2022-10-23T13:51:49.857Z,12.07
2022-10-23T13:54:21.467Z,5.33
2022-10-23T13:56:51.611Z,6.30
2022-10-23T13:59:20.724Z,4.87
2022-10-23T14:01:51.126Z,7.73
2022-10-23T14:04:20.798Z,4.73
2022-10-23T14:06:49.675Z,5.70
2022-10-23T14:09:20.159Z,7.60
2022-10-23T14:11:50.413Z,8.10
2022-10-23T14:14:19.205Z,6.50
2022-10-23T14:16:47.793Z,10.30
2022-10-23T14:19:16.280Z,6.07
2022-10-23T14:21:44.748Z,7.70
2022-10-23T14:24:14.698Z,11.40
2022-10-23T14:26:43.274Z,7.80
2022-10-23T14:29:21.347Z,7.63
2022-10-23T14:31:51.761Z,5.30
2022-10-23T14:34:20.960Z,15.63
2022-10-23T14:36:56.687Z,7.83
2022-10-23T14:39:32.680Z,9.63
2022-10-23T14:42:01.288Z,11.70
2022-10-23T14:44:31.168Z,13.47
2022-10-23T14:47:00.133Z,7.70
2022-10-23T14:49:28.780Z,8.53
2022-10-23T14:51:57.321Z,7.70
2022-10-23T14:54:26.209Z,12.60
2022-10-23T14:56:54.802Z,8.03
2022-10-23T14:59:23.520Z,7.87
2022-10-23T15:04:23.057Z,15.70
2022-10-23T15:06:52.865Z,11.07
2022-10-23T15:09:21.961Z,9.53
2022-10-23T15:11:52.731Z,10.00
2022-10-23T15:14:21.263Z,9.87
2022-10-23T15:16:49.899Z,13.37
2022-10-23T15:19:19.824Z,13.53
2022-10-23T15:21:49.411Z,11.43
2022-10-23T15:24:18.600Z,9.23
2022-10-23T15:26:47.361Z,11.60
2022-10-23T15:29:16.595Z,10.00
2022-10-23T15:31:47.766Z,11.50
2022-10-23T15:34:19.715Z,15.90
2022-10-23T15:36:49.393Z,14.10
2022-10-23T15:39:20.631Z,18.53
2022-10-23T15:41:54.014Z,12.63
2022-10-23T15:44:24.539Z,13.03
2022-10-23T15:46:54.039Z,15.23
2022-10-23T15:49:26.342Z,15.97
2022-10-23T15:51:55.510Z,13.77
2022-10-23T15:54:26.950Z,25.83
2022-10-23T15:56:58.716Z,17.03
2022-10-23T15:59:27.657Z,14.53
2022-10-23T16:01:57.584Z,12.73
2022-10-23T16:04:28.868Z,16.17
2022-10-23T16:06:57.664Z,12.83
2022-10-23T16:09:26.348Z,13.53
2022-10-23T16:11:54.863Z,15.23
2022-10-23T16:14:23.609Z,19.73
2022-10-23T16:16:52.372Z,14.50
2022-10-23T16:19:20.947Z,15.37
2022-10-23T16:21:51.099Z,11.87
2022-10-23T16:24:19.696Z,12.10
2022-10-23T16:26:53.190Z,10.23
2022-10-23T16:29:22.128Z,10.30
2022-10-23T16:31:51.020Z,11.67
2022-10-23T16:34:20.163Z,12.23
2022-10-23T16:36:50.882Z,16.47
2022-10-23T16:39:21.128Z,17.87
2022-10-23T16:41:49.874Z,11.80
2022-10-23T16:44:18.612Z,16.97
2022-10-23T16:46:47.738Z,22.27
2022-10-23T16:49:16.615Z,33.43
2022-10-23T16:51:45.996Z,27.37
2022-10-23T16:54:18.234Z,21.27
2022-10-23T16:56:51.915Z,15.70
2022-10-23T16:59:20.482Z,13.63
2022-10-23T17:01:49.133Z,13.57
2022-10-23T17:04:17.750Z,13.10
2022-10-23T17:06:46.274Z,12.90
2022-10-23T17:09:17.020Z,17.17
2022-10-23T17:11:46.765Z,11.87
2022-10-23T17:14:18.445Z,13.83
2022-10-23T17:16:49.427Z,15.47
2022-10-23T17:19:43.379Z,17.10
2022-10-23T17:22:12.571Z,17.77
2022-10-23T17:24:46.142Z,14.10
2022-10-23T17:27:17.662Z,20.20
2022-10-23T17:29:46.401Z,15.03
2022-10-23T17:32:15.403Z,14.50
2022-10-23T17:34:43.993Z,15.07
2022-10-23T17:37:13.371Z,16.43
2022-10-23T17:39:43.518Z,16.20
2022-10-23T17:42:12.373Z,15.70
2022-10-23T17:44:40.880Z,17.27
2022-10-23T17:47:09.423Z,19.57
2022-10-23T17:49:39.549Z,21.70
2022-10-23T17:52:14.282Z,18.67
2022-10-23T17:54:47.083Z,14.83
2022-10-23T17:57:15.681Z,18.30
2022-10-23T17:59:44.215Z,21.17
2022-10-23T18:02:14.093Z,20.93
2022-10-23T18:04:42.775Z,22.20
2022-10-23T18:07:11.256Z,24.73
2022-10-23T18:09:40.063Z,20.13
2022-10-23T18:12:10.092Z,19.20
2022-10-23T18:14:38.948Z,20.77
2022-10-23T18:17:07.593Z,17.90
2022-10-23T18:19:36.628Z,19.43
2022-10-23T18:22:05.342Z,29.63
2022-10-23T18:24:34.171Z,27.77
2022-10-23T18:27:02.825Z,25.57
2022-10-23T18:29:32.758Z,22.87
2022-10-23T18:32:01.374Z,23.57
2022-10-23T18:34:29.904Z,25.00
2022-10-23T18:36:58.550Z,28.30
2022-10-23T18:39:27.386Z,24.33
2022-10-23T18:41:57.605Z,25.53
2022-10-23T18:44:29.054Z,23.47
2022-10-23T18:47:00.059Z,27.83
2022-10-23T18:49:29.355Z,24.60
2022-10-23T18:51:58.380Z,34.67
2022-10-23T18:54:27.268Z,37.73
2022-10-23T18:56:55.920Z,34.87
2022-10-23T18:59:25.052Z,28.40
2022-10-23T19:01:54.082Z,36.40
2022-10-23T19:04:24.233Z,30.10
2022-10-23T19:06:53.706Z,29.77
2022-10-23T19:09:22.985Z,24.23
2022-10-23T19:11:51.497Z,28.53
2022-10-23T19:14:19.990Z,26.23
2022-10-23T19:16:59.942Z,26.83
2022-10-23T19:19:34.995Z,23.60
2022-10-23T19:22:05.139Z,23.30
2022-10-23T19:24:46.809Z,25.07
2022-10-23T19:27:15.972Z,30.90
2022-10-23T19:29:47.828Z,28.60
2022-10-23T19:32:16.620Z,33.70
2022-10-23T19:34:48.132Z,27.90
2022-10-23T19:37:17.007Z,36.73
2022-10-23T19:39:45.426Z,21.63
2022-10-23T19:42:14.043Z,22.77
2022-10-23T19:44:42.556Z,26.73
2022-10-23T19:47:11.052Z,24.60
2022-10-23T19:49:39.707Z,27.80
2022-10-23T19:52:09.608Z,26.97
2022-10-23T19:54:40.227Z,23.43
2022-10-23T19:57:08.955Z,23.97
2022-10-23T19:59:37.527Z,24.67
2022-10-23T20:02:06.183Z,24.53
2022-10-23T20:04:34.983Z,26.37
2022-10-23T20:07:03.487Z,22.70
2022-10-23T20:09:34.117Z,26.80
2022-10-23T20:12:03.598Z,25.90
2022-10-23T20:14:32.165Z,22.83
2022-10-23T20:17:01.609Z,21.70
2022-10-23T20:19:30.270Z,23.87
2022-10-23T20:21:58.850Z,21.87
2022-10-23T20:24:27.289Z,24.77
2022-10-23T20:26:57.800Z,23.37
2022-10-23T20:29:26.687Z,29.87
2022-10-23T20:31:55.204Z,26.20
2022-10-23T20:34:23.689Z,26.93
2022-10-23T20:36:52.212Z,22.87
2022-10-23T20:39:24.527Z,24.50
2022-10-23T20:41:55.167Z,27.43
2022-10-23T20:44:25.770Z,22.83
2022-10-23T20:46:54.565Z,24.43
2022-10-23T20:49:23.888Z,23.77
2022-10-23T20:51:55.162Z,27.40
2022-10-23T20:54:24.879Z,22.07
2022-10-23T20:56:53.587Z,30.13
2022-10-23T20:59:22.153Z,32.47
2022-10-23T21:01:56.204Z,28.90
2022-10-23T21:04:27.511Z,27.90
2022-10-23T21:07:12.894Z,24.93
2022-10-23T21:09:41.529Z,25.07
2022-10-23T21:12:10.386Z,30.33
2022-10-23T21:14:39.042Z,28.97
2022-10-23T21:17:11.972Z,27.37
2022-10-23T21:19:40.640Z,22.67
2022-10-23T21:22:09.096Z,28.43
2022-10-23T21:24:37.538Z,26.23
2022-10-23T21:27:06.207Z,26.83
2022-10-23T21:29:34.690Z,26.07
2022-10-23T21:32:03.189Z,25.63
2022-10-23T21:34:33.213Z,26.93
2022-10-23T21:37:17.674Z,34.57
2022-10-23T21:39:47.255Z,32.40
2022-10-23T21:42:16.179Z,30.37
2022-10-23T21:44:47.791Z,33.03
2022-10-23T21:47:16.358Z,26.70
2022-10-23T21:49:46.371Z,28.67
2022-10-23T21:52:17.585Z,27.20
2022-10-23T21:54:52.226Z,26.20
2022-10-23T21:57:21.026Z,25.43
2022-10-23T21:59:49.932Z,26.80
2022-10-23T22:02:18.571Z,33.97
2022-10-23T22:04:48.610Z,23.87
2022-10-23T22:07:17.172Z,24.40
2022-10-23T22:09:45.901Z,29.43
2022-10-23T22:12:14.467Z,26.03
2022-10-23T22:14:43.267Z,27.67
2022-10-23T22:17:11.748Z,24.33
2022-10-23T22:19:40.250Z,30.23
2022-10-23T22:22:10.179Z,28.47
2022-10-23T22:24:38.792Z,31.10
2022-10-23T22:27:07.395Z,23.27
2022-10-23T22:29:35.818Z,22.50
2022-10-23T22:32:04.330Z,22.13
2022-10-23T22:34:51.894Z,18.10
2022-10-23T22:37:22.823Z,21.20
2022-10-23T22:39:52.650Z,20.10
2022-10-23T22:42:21.563Z,18.17
2022-10-23T22:44:50.180Z,26.60
2022-10-23T22:47:18.611Z,17.40
2022-10-23T22:49:47.066Z,14.30
2022-10-23T22:52:15.634Z,15.83
2022-10-23T22:54:45.704Z,13.57
2022-10-23T22:57:14.201Z,16.40
2022-10-23T22:59:42.681Z,14.13
2022-10-23T23:02:11.181Z,10.00
2022-10-23T23:04:39.837Z,12.83
2022-10-23T23:07:09.328Z,13.53
2022-10-23T23:09:39.654Z,13.93
2022-10-23T23:12:11.355Z,14.17
2022-10-23T23:14:40.344Z,12.63
2022-10-23T23:17:09.498Z,15.47
2022-10-23T23:19:38.236Z,15.73
2022-10-23T23:22:06.970Z,16.60
2022-10-23T23:24:35.466Z,12.90
2022-10-23T23:27:03.963Z,16.73
2022-10-23T23:29:33.860Z,15.97
2022-10-23T23:32:02.359Z,11.83
2022-10-23T23:34:31.002Z,10.87
2022-10-23T23:36:59.437Z,13.10
2022-10-23T23:39:28.588Z,18.63
2022-10-23T23:41:57.240Z,19.37
2022-10-23T23:44:25.742Z,18.23
2022-10-23T23:46:55.878Z,18.70
2022-10-23T23:49:25.091Z,22.50
2022-10-23T23:51:53.650Z,29.17
2022-10-23T23:54:22.148Z,34.43
2022-10-23T23:56:50.626Z,27.77
2022-10-23T23:59:19.181Z,27.50
